sensor_id;sensor_type;location;lat;lon;timestamp;pressure;altitude;pressure_sealevel;temperature;humidity
13478;BME280;12598;62.382;17.344;2024-01-07T00:00:43;102775.78;;;10.24;12.67
13478;BME280;12598;62.382;17.344;2024-01-07T00:01:48;102767.31;;;10.13;13.15
13478;BME280;12598;62.382;17.344;2024-01-07T00:02:51;102732.50;;;9.99;12.92
13478;BME280;12598;62.382;17.344;2024-01-07T00:03:53;102771.47;;;10.20;12.93
13478;BME280;12598;62.382;17.344;2024-01-07T00:04:55;102786.47;;;10.19;13.23
13478;BME280;12598;62.382;17.344;2024-01-07T00:05:56;102786.53;;;10.18;13.02
13478;BME280;12598;62.382;17.344;2024-01-07T00:06:58;102788.31;;;10.17;12.66
13478;BME280;12598;62.382;17.344;2024-01-07T00:08:00;102780.47;;;10.14;13.32
13478;BME280;12598;62.382;17.344;2024-01-07T00:09:02;102785.78;;;10.14;13.17
13478;BME280;12598;62.382;17.344;2024-01-07T00:10:04;102784.03;;;10.13;13.33
13478;BME280;12598;62.382;17.344;2024-01-07T00:11:06;102784.06;;;10.12;13.31
13478;BME280;12598;62.382;17.344;2024-01-07T00:12:08;102781.44;;;10.12;12.78
13478;BME280;12598;62.382;17.344;2024-01-07T00:13:10;102785.88;;;10.11;13.39
13478;BME280;12598;62.382;17.344;2024-01-07T00:14:12;102780.63;;;10.10;12.87
13478;BME280;12598;62.382;17.344;2024-01-07T00:15:14;102783.25;;;10.10;13.21
13478;BME280;12598;62.382;17.344;2024-01-07T00:16:15;102789.47;;;10.09;12.95
13478;BME280;12598;62.382;17.344;2024-01-07T00:17:17;102780.69;;;10.08;13.46
13478;BME280;12598;62.382;17.344;2024-01-07T00:18:19;102778.97;;;10.06;12.87
13478;BME280;12598;62.382;17.344;2024-01-07T00:19:21;102780.78;;;10.05;13.45
13478;BME280;12598;62.382;17.344;2024-01-07T00:20:23;102782.53;;;10.05;13.02
13478;BME280;12598;62.382;17.344;2024-01-07T00:21:25;102779.06;;;10.04;12.85
13478;BME280;12598;62.382;17.344;2024-01-07T00:22:27;102773.78;;;10.03;13.32
13478;BME280;12598;62.382;17.344;2024-01-07T00:23:29;102774.69;;;10.03;12.92
13478;BME280;12598;62.382;17.344;2024-01-07T00:24:30;102783.53;;;10.02;13.15
13478;BME280;12598;62.382;17.344;2024-01-07T00:25:32;102777.41;;;9.99;12.91
13478;BME280;12598;62.382;17.344;2024-01-07T00:26:34;102780.91;;;10.01;13.47
13478;BME280;12598;62.382;17.344;2024-01-07T00:27:36;102784.44;;;10.00;13.18
13478;BME280;12598;62.382;17.344;2024-01-07T00:28:39;102768.88;;;9.91;13.24
13478;BME280;12598;62.382;17.344;2024-01-07T00:29:40;102779.25;;;9.97;12.80
13478;BME280;12598;62.382;17.344;2024-01-07T00:30:42;102786.28;;;9.96;13.30
13478;BME280;12598;62.382;17.344;2024-01-07T00:31:44;102789.81;;;9.97;13.31
13478;BME280;12598;62.382;17.344;2024-01-07T00:32:46;102785.47;;;9.94;13.50
13478;BME280;12598;62.382;17.344;2024-01-07T00:33:48;102785.47;;;9.94;12.80
13478;BME280;12598;62.382;17.344;2024-01-07T00:34:50;102779.38;;;9.92;12.87
13478;BME280;12598;62.382;17.344;2024-01-07T00:35:56;102786.34;;;9.95;13.30
13478;BME280;12598;62.382;17.344;2024-01-07T00:36:58;102789.91;;;9.94;12.95
13478;BME280;12598;62.382;17.344;2024-01-07T00:38:00;102778.63;;;9.89;12.94
13478;BME280;12598;62.382;17.344;2024-01-07T00:39:01;102783.81;;;9.92;12.96
13478;BME280;12598;62.382;17.344;2024-01-07T00:40:04;102787.41;;;9.89;13.52
13478;BME280;12598;62.382;17.344;2024-01-07T00:41:06;102782.09;;;9.89;13.10
13478;BME280;12598;62.382;17.344;2024-01-07T00:42:08;102791.81;;;9.89;13.51
13478;BME280;12598;62.382;17.344;2024-01-07T00:43:10;102781.28;;;9.87;12.89
13478;BME280;12598;62.382;17.344;2024-01-07T00:44:12;102774.44;;;9.82;13.21
13478;BME280;12598;62.382;17.344;2024-01-07T00:45:14;102788.38;;;9.87;13.46
13478;BME280;12598;62.382;17.344;2024-01-07T00:46:15;102790.13;;;9.86;13.42
13478;BME280;12598;62.382;17.344;2024-01-07T00:47:17;102795.47;;;9.85;13.39
13478;BME280;12598;62.382;17.344;2024-01-07T00:48:19;102784.91;;;9.85;13.21
13478;BME280;12598;62.382;17.344;2024-01-07T00:49:21;102795.47;;;9.85;13.53
13478;BME280;12598;62.382;17.344;2024-01-07T00:50:23;102797.25;;;9.84;12.95
13478;BME280;12598;62.382;17.344;2024-01-07T00:51:25;102799.88;;;9.84;12.80
13478;BME280;12598;62.382;17.344;2024-01-07T00:52:26;102797.31;;;9.83;12.79
13478;BME280;12598;62.382;17.344;2024-01-07T00:53:28;102795.56;;;9.82;13.18
13478;BME280;12598;62.382;17.344;2024-01-07T00:54:30;102800.84;;;9.82;13.65
13478;BME280;12598;62.382;17.344;2024-01-07T00:55:32;102793.84;;;9.81;13.55
13478;BME280;12598;62.382;17.344;2024-01-07T00:56:34;102800.84;;;9.82;13.51
13478;BME280;12598;62.382;17.344;2024-01-07T00:57:35;102800.03;;;9.80;12.95
13478;BME280;12598;62.382;17.344;2024-01-07T00:58:37;102797.41;;;9.80;12.97
13478;BME280;12598;62.382;17.344;2024-01-07T00:59:39;102800.09;;;9.77;13.42
13478;BME280;12598;62.382;17.344;2024-01-07T01:00:41;102806.22;;;9.79;13.45
13478;BME280;12598;62.382;17.344;2024-01-07T01:01:43;102805.34;;;9.78;12.84
13478;BME280;12598;62.382;17.344;2024-01-07T01:02:45;102786.31;;;9.67;13.29
13478;BME280;12598;62.382;17.344;2024-01-07T01:03:47;102808.91;;;9.77;13.31
13478;BME280;12598;62.382;17.344;2024-01-07T01:04:49;102806.22;;;9.79;12.94
13478;BME280;12598;62.382;17.344;2024-01-07T01:05:52;102809.75;;;9.78;13.23
13478;BME280;12598;62.382;17.344;2024-01-07T01:06:54;102804.47;;;9.78;13.67
13478;BME280;12598;62.382;17.344;2024-01-07T01:07:56;102808.03;;;9.77;12.89
13478;BME280;12598;62.382;17.344;2024-01-07T01:08:58;102789.00;;;9.66;13.42
13478;BME280;12598;62.382;17.344;2024-01-07T01:10:00;102805.47;;;9.74;13.18
13478;BME280;12598;62.382;17.344;2024-01-07T01:11:01;102808.91;;;9.77;13.34
13478;BME280;12598;62.382;17.344;2024-01-07T01:12:03;102810.66;;;9.77;13.74
13478;BME280;12598;62.382;17.344;2024-01-07T01:13:06;102811.56;;;9.76;13.61
13478;BME280;12598;62.382;17.344;2024-01-07T01:14:08;102804.56;;;9.75;13.62
13478;BME280;12598;62.382;17.344;2024-01-07T01:15:09;102804.66;;;9.72;13.07
13478;BME280;12598;62.382;17.344;2024-01-07T01:16:11;102816.00;;;9.75;13.70
13478;BME280;12598;62.382;17.344;2024-01-07T01:17:13;102809.84;;;9.75;13.79
13478;BME280;12598;62.382;17.344;2024-01-07T01:18:15;102810.75;;;9.74;13.04
13478;BME280;12598;62.382;17.344;2024-01-07T01:19:17;102809.91;;;9.73;13.61
13478;BME280;12598;62.382;17.344;2024-01-07T01:20:20;102784.78;;;9.60;13.32
13478;BME280;12598;62.382;17.344;2024-01-07T01:21:22;102803.91;;;9.68;13.39
13478;BME280;12598;62.382;17.344;2024-01-07T01:22:24;102811.66;;;9.73;13.33
13478;BME280;12598;62.382;17.344;2024-01-07T01:23:26;102815.22;;;9.72;12.98
13478;BME280;12598;62.382;17.344;2024-01-07T01:24:28;102820.50;;;9.72;13.57
13478;BME280;12598;62.382;17.344;2024-01-07T01:25:30;102820.56;;;9.70;13.69
13478;BME280;12598;62.382;17.344;2024-01-07T01:26:32;102817.91;;;9.70;13.65
13478;BME280;12598;62.382;17.344;2024-01-07T01:27:33;102814.41;;;9.70;13.52
13478;BME280;12598;62.382;17.344;2024-01-07T01:28:35;102804.91;;;9.64;13.54
13478;BME280;12598;62.382;17.344;2024-01-07T01:29:37;102769.44;;;9.42;13.47
13478;BME280;12598;62.382;17.344;2024-01-07T01:30:39;102817.03;;;9.70;13.63
13478;BME280;12598;62.382;17.344;2024-01-07T01:31:42;102817.03;;;9.70;12.98
13478;BME280;12598;62.382;17.344;2024-01-07T01:32:44;102818.84;;;9.69;13.44
13478;BME280;12598;62.382;17.344;2024-01-07T01:33:46;102810.03;;;9.69;13.23
13478;BME280;12598;62.382;17.344;2024-01-07T01:34:48;102812.72;;;9.67;13.36
13478;BME280;12598;62.382;17.344;2024-01-07T01:35:50;102820.59;;;9.69;13.44
13478;BME280;12598;62.382;17.344;2024-01-07T01:36:52;102814.56;;;9.65;13.07
13478;BME280;12598;62.382;17.344;2024-01-07T01:37:54;102818.88;;;9.68;13.15
13478;BME280;12598;62.382;17.344;2024-01-07T01:38:56;102816.22;;;9.68;13.34
13478;BME280;12598;62.382;17.344;2024-01-07T01:39:58;102816.28;;;9.66;13.39
13478;BME280;12598;62.382;17.344;2024-01-07T01:41:00;102815.31;;;9.69;13.00
13478;BME280;12598;62.382;17.344;2024-01-07T01:42:02;102810.09;;;9.67;13.00
13478;BME280;12598;62.382;17.344;2024-01-07T01:43:04;102816.28;;;9.66;13.36
13478;BME280;12598;62.382;17.344;2024-01-07T01:44:06;102817.13;;;9.67;13.00
13478;BME280;12598;62.382;17.344;2024-01-07T01:45:08;102819.78;;;9.67;13.85
13478;BME280;12598;62.382;17.344;2024-01-07T01:46:10;102816.28;;;9.66;13.83
13478;BME280;12598;62.382;17.344;2024-01-07T01:47:12;102823.31;;;9.66;12.88
13478;BME280;12598;62.382;17.344;2024-01-07T01:48:14;102815.50;;;9.63;13.21
13478;BME280;12598;62.382;17.344;2024-01-07T01:49:16;102829.50;;;9.65;12.84
13478;BME280;12598;62.382;17.344;2024-01-07T01:50:18;102818.03;;;9.66;12.97
13478;BME280;12598;62.382;17.344;2024-01-07T01:51:21;102824.22;;;9.65;13.85
13478;BME280;12598;62.382;17.344;2024-01-07T01:52:24;102828.66;;;9.64;13.02
13478;BME280;12598;62.382;17.344;2024-01-07T01:53:26;102816.50;;;9.59;13.44
13478;BME280;12598;62.382;17.344;2024-01-07T01:54:28;102826.06;;;9.63;13.13
13478;BME280;12598;62.382;17.344;2024-01-07T01:55:30;102813.84;;;9.59;13.59
13478;BME280;12598;62.382;17.344;2024-01-07T01:56:33;102830.44;;;9.64;13.67
13478;BME280;12598;62.382;17.344;2024-01-07T01:57:36;102837.50;;;9.63;13.33
13478;BME280;12598;62.382;17.344;2024-01-07T01:58:40;102838.34;;;9.64;13.59
13478;BME280;12598;62.382;17.344;2024-01-07T01:59:42;102830.50;;;9.62;13.82
13478;BME280;12598;62.382;17.344;2024-01-07T02:00:44;102833.13;;;9.62;12.97
13478;BME280;12598;62.382;17.344;2024-01-07T02:01:46;102825.31;;;9.59;13.64
13478;BME280;12598;62.382;17.344;2024-01-07T02:02:49;102820.94;;;9.58;13.32
13478;BME280;12598;62.382;17.344;2024-01-07T02:03:51;102824.59;;;9.53;13.36
13478;BME280;12598;62.382;17.344;2024-01-07T02:04:56;102836.63;;;9.63;13.21
13478;BME280;12598;62.382;17.344;2024-01-07T02:05:58;102836.69;;;9.61;13.34
13478;BME280;12598;62.382;17.344;2024-01-07T02:07:01;102828.91;;;9.55;13.41
13478;BME280;12598;62.382;17.344;2024-01-07T02:08:04;102836.72;;;9.60;13.46
13478;BME280;12598;62.382;17.344;2024-01-07T02:09:06;102833.16;;;9.61;13.02
13478;BME280;12598;62.382;17.344;2024-01-07T02:10:08;102834.06;;;9.60;13.54
13478;BME280;12598;62.382;17.344;2024-01-07T02:11:18;102828.88;;;9.57;12.97
13478;BME280;12598;62.382;17.344;2024-01-07T02:12:20;102839.34;;;9.60;13.53
13478;BME280;12598;62.382;17.344;2024-01-07T02:13:22;102836.72;;;9.60;13.13
13478;BME280;12598;62.382;17.344;2024-01-07T02:14:25;102834.97;;;9.59;13.72
13478;BME280;12598;62.382;17.344;2024-01-07T02:15:27;102836.81;;;9.57;13.02
13478;BME280;12598;62.382;17.344;2024-01-07T02:16:29;102816.88;;;9.45;13.65
13478;BME280;12598;62.382;17.344;2024-01-07T02:17:31;102824.53;;;9.54;13.48
13478;BME280;12598;62.382;17.344;2024-01-07T02:18:33;102821.13;;;9.51;13.29
13478;BME280;12598;62.382;17.344;2024-01-07T02:19:35;102829.78;;;9.56;12.91
13478;BME280;12598;62.382;17.344;2024-01-07T02:20:37;102831.69;;;9.51;13.41
13478;BME280;12598;62.382;17.344;2024-01-07T02:21:39;102838.63;;;9.55;12.87
13478;BME280;12598;62.382;17.344;2024-01-07T02:22:41;102839.47;;;9.55;12.93
13478;BME280;12598;62.382;17.344;2024-01-07T02:23:42;102837.72;;;9.54;13.01
13478;BME280;12598;62.382;17.344;2024-01-07T02:24:44;102843.91;;;9.55;13.28
13478;BME280;12598;62.382;17.344;2024-01-07T02:25:46;102843.00;;;9.54;13.79
13478;BME280;12598;62.382;17.344;2024-01-07T02:26:48;102834.34;;;9.51;13.59
13478;BME280;12598;62.382;17.344;2024-01-07T02:27:50;102825.63;;;9.47;13.10
13478;BME280;12598;62.382;17.344;2024-01-07T02:28:52;102837.78;;;9.53;13.01
13478;BME280;12598;62.382;17.344;2024-01-07T02:29:54;102844.84;;;9.52;12.92
13478;BME280;12598;62.382;17.344;2024-01-07T02:30:55;102837.81;;;9.51;12.96
13478;BME280;12598;62.382;17.344;2024-01-07T02:31:57;102842.25;;;9.51;13.74
13478;BME280;12598;62.382;17.344;2024-01-07T02:33:03;102835.25;;;9.50;13.11
13478;BME280;12598;62.382;17.344;2024-01-07T02:34:09;102836.09;;;9.50;13.41
13478;BME280;12598;62.382;17.344;2024-01-07T02:35:11;102837.78;;;9.53;13.84
13478;BME280;12598;62.382;17.344;2024-01-07T02:36:15;102836.09;;;9.50;13.62
13478;BME280;12598;62.382;17.344;2024-01-07T02:37:17;102838.72;;;9.50;13.59
13478;BME280;12598;62.382;17.344;2024-01-07T02:38:18;102845.81;;;9.50;13.52
13478;BME280;12598;62.382;17.344;2024-01-07T02:39:20;102837.16;;;9.45;13.20
13478;BME280;12598;62.382;17.344;2024-01-07T02:40:22;102827.50;;;9.44;13.44
13478;BME280;12598;62.382;17.344;2024-01-07T02:41:24;102830.91;;;9.47;13.39
13478;BME280;12598;62.382;17.344;2024-01-07T02:42:28;102829.97;;;9.50;13.62
13478;BME280;12598;62.382;17.344;2024-01-07T02:43:32;102838.81;;;9.47;13.46
13478;BME280;12598;62.382;17.344;2024-01-07T02:44:33;102844.94;;;9.49;13.30
13478;BME280;12598;62.382;17.344;2024-01-07T02:45:35;102833.69;;;9.43;13.43
13478;BME280;12598;62.382;17.344;2024-01-07T02:46:37;102836.19;;;9.47;13.67
13478;BME280;12598;62.382;17.344;2024-01-07T02:47:39;102837.97;;;9.47;13.68
13478;BME280;12598;62.382;17.344;2024-01-07T02:48:41;102831.91;;;9.43;13.47
13478;BME280;12598;62.382;17.344;2024-01-07T02:49:43;102837.19;;;9.43;13.37
13478;BME280;12598;62.382;17.344;2024-01-07T02:50:44;102839.78;;;9.45;13.08
13478;BME280;12598;62.382;17.344;2024-01-07T02:51:46;102845.00;;;9.46;13.57
13478;BME280;12598;62.382;17.344;2024-01-07T02:52:51;102844.09;;;9.47;13.65
13478;BME280;12598;62.382;17.344;2024-01-07T02:53:52;102843.28;;;9.45;13.50
13478;BME280;12598;62.382;17.344;2024-01-07T02:54:54;102838.00;;;9.45;13.41
13478;BME280;12598;62.382;17.344;2024-01-07T02:55:56;102826.59;;;9.45;13.71
13478;BME280;12598;62.382;17.344;2024-01-07T02:56:58;102829.22;;;9.45;13.22
13478;BME280;12598;62.382;17.344;2024-01-07T02:58:00;102828.34;;;9.44;13.06
13478;BME280;12598;62.382;17.344;2024-01-07T02:59:01;102826.59;;;9.45;13.14
13478;BME280;12598;62.382;17.344;2024-01-07T03:00:04;102816.19;;;9.39;13.32
13478;BME280;12598;62.382;17.344;2024-01-07T03:01:10;102834.53;;;9.43;13.17
13478;BME280;12598;62.382;17.344;2024-01-07T03:02:12;102830.13;;;9.44;12.99
13478;BME280;12598;62.382;17.344;2024-01-07T03:03:14;102831.00;;;9.44;13.41
13478;BME280;12598;62.382;17.344;2024-01-07T03:04:16;102832.78;;;9.44;12.97
13478;BME280;12598;62.382;17.344;2024-01-07T03:05:18;102829.25;;;9.43;13.13
13478;BME280;12598;62.382;17.344;2024-01-07T03:06:20;102833.69;;;9.43;13.00
13478;BME280;12598;62.382;17.344;2024-01-07T03:07:22;102835.41;;;9.44;13.60
13478;BME280;12598;62.382;17.344;2024-01-07T03:08:23;102838.97;;;9.43;13.77
13478;BME280;12598;62.382;17.344;2024-01-07T03:09:25;102838.09;;;9.42;13.58
13478;BME280;12598;62.382;17.344;2024-01-07T03:10:27;102841.63;;;9.41;12.97
13478;BME280;12598;62.382;17.344;2024-01-07T03:11:29;102838.16;;;9.41;13.76
13478;BME280;12598;62.382;17.344;2024-01-07T03:12:31;102833.78;;;9.40;12.97
13478;BME280;12598;62.382;17.344;2024-01-07T03:13:33;102839.06;;;9.40;13.13
13478;BME280;12598;62.382;17.344;2024-01-07T03:14:35;102835.50;;;9.41;13.03
13478;BME280;12598;62.382;17.344;2024-01-07T03:15:36;102837.31;;;9.39;13.75
13478;BME280;12598;62.382;17.344;2024-01-07T03:16:39;102833.78;;;9.40;13.15
13478;BME280;12598;62.382;17.344;2024-01-07T03:17:41;102835.53;;;9.39;13.24
13478;BME280;12598;62.382;17.344;2024-01-07T03:18:43;102839.97;;;9.39;13.63
13478;BME280;12598;62.382;17.344;2024-01-07T03:19:45;102830.31;;;9.38;13.59
13478;BME280;12598;62.382;17.344;2024-01-07T03:20:47;102837.31;;;9.39;13.30
13478;BME280;12598;62.382;17.344;2024-01-07T03:21:49;102843.50;;;9.38;12.96
13478;BME280;12598;62.382;17.344;2024-01-07T03:22:51;102835.72;;;9.32;13.38
13478;BME280;12598;62.382;17.344;2024-01-07T03:23:53;102829.44;;;9.37;13.71
13478;BME280;12598;62.382;17.344;2024-01-07T03:24:55;102846.22;;;9.35;13.41
13478;BME280;12598;62.382;17.344;2024-01-07T03:25:58;102843.53;;;9.36;13.61
13478;BME280;12598;62.382;17.344;2024-01-07T03:26:59;102847.06;;;9.37;13.74
13478;BME280;12598;62.382;17.344;2024-01-07T03:28:01;102847.06;;;9.37;13.65
13478;BME280;12598;62.382;17.344;2024-01-07T03:29:03;102842.75;;;9.33;13.25
13478;BME280;12598;62.382;17.344;2024-01-07T03:30:05;102843.53;;;9.36;12.90
13478;BME280;12598;62.382;17.344;2024-01-07T03:31:18;102855.84;;;9.37;13.63
13478;BME280;12598;62.382;17.344;2024-01-07T03:32:20;102857.53;;;9.40;13.68
13478;BME280;12598;62.382;17.344;2024-01-07T03:33:22;102857.56;;;9.38;13.88
13478;BME280;12598;62.382;17.344;2024-01-07T03:34:24;102862.00;;;9.38;13.02
13478;BME280;12598;62.382;17.344;2024-01-07T03:35:27;102858.47;;;9.37;13.07
13478;BME280;12598;62.382;17.344;2024-01-07T03:36:29;102862.91;;;9.37;13.71
13478;BME280;12598;62.382;17.344;2024-01-07T03:37:30;102856.72;;;9.38;13.70
13478;BME280;12598;62.382;17.344;2024-01-07T03:38:32;102854.97;;;9.37;13.70
13478;BME280;12598;62.382;17.344;2024-01-07T03:39:34;102854.97;;;9.37;13.49
13478;BME280;12598;62.382;17.344;2024-01-07T03:40:36;102841.09;;;9.29;13.63
13478;BME280;12598;62.382;17.344;2024-01-07T03:41:38;102857.69;;;9.34;13.08
13478;BME280;12598;62.382;17.344;2024-01-07T03:42:40;102840.16;;;9.31;13.18
13478;BME280;12598;62.382;17.344;2024-01-07T03:43:42;102851.47;;;9.36;13.30
13478;BME280;12598;62.382;17.344;2024-01-07T03:44:44;102849.69;;;9.37;13.08
13478;BME280;12598;62.382;17.344;2024-01-07T03:45:45;102855.84;;;9.37;13.86
13478;BME280;12598;62.382;17.344;2024-01-07T03:46:47;102851.47;;;9.36;13.44
13478;BME280;12598;62.382;17.344;2024-01-07T03:47:50;102851.50;;;9.35;13.08
13478;BME280;12598;62.382;17.344;2024-01-07T03:48:52;102850.63;;;9.36;13.06
13478;BME280;12598;62.382;17.344;2024-01-07T03:49:54;102849.69;;;9.37;13.73
13478;BME280;12598;62.382;17.344;2024-01-07T03:50:56;102841.19;;;9.26;13.19
13478;BME280;12598;62.382;17.344;2024-01-07T03:51:57;102850.63;;;9.36;13.03
13478;BME280;12598;62.382;17.344;2024-01-07T03:52:59;102848.84;;;9.35;13.76
13478;BME280;12598;62.382;17.344;2024-01-07T03:54:01;102853.25;;;9.36;13.13
13478;BME280;12598;62.382;17.344;2024-01-07T03:55:03;102830.78;;;9.20;13.53
13478;BME280;12598;62.382;17.344;2024-01-07T03:56:05;102858.53;;;9.36;13.65
13478;BME280;12598;62.382;17.344;2024-01-07T03:57:07;102862.03;;;9.35;13.31
13478;BME280;12598;62.382;17.344;2024-01-07T03:58:09;102859.38;;;9.36;13.13
13478;BME280;12598;62.382;17.344;2024-01-07T03:59:11;102856.75;;;9.35;13.78
13478;BME280;12598;62.382;17.344;2024-01-07T04:00:13;102861.19;;;9.34;13.29
13478;BME280;12598;62.382;17.344;2024-01-07T04:01:16;102860.28;;;9.35;13.18
13478;BME280;12598;62.382;17.344;2024-01-07T04:02:18;102866.44;;;9.36;13.26
13478;BME280;12598;62.382;17.344;2024-01-07T04:03:20;102860.31;;;9.34;13.12
13478;BME280;12598;62.382;17.344;2024-01-07T04:04:22;102862.03;;;9.35;13.10
13478;BME280;12598;62.382;17.344;2024-01-07T04:05:24;102861.28;;;9.31;13.50
13478;BME280;12598;62.382;17.344;2024-01-07T04:06:26;102869.97;;;9.35;13.70
13478;BME280;12598;62.382;17.344;2024-01-07T04:07:28;102864.75;;;9.33;13.16
13478;BME280;12598;62.382;17.344;2024-01-07T04:08:30;102868.28;;;9.32;13.31
13478;BME280;12598;62.382;17.344;2024-01-07T04:09:32;102876.16;;;9.34;13.45
13478;BME280;12598;62.382;17.344;2024-01-07T04:10:34;102876.16;;;9.34;13.24
13478;BME280;12598;62.382;17.344;2024-01-07T04:11:40;102873.56;;;9.32;13.67
13478;BME280;12598;62.382;17.344;2024-01-07T04:12:42;102868.22;;;9.34;13.10
13478;BME280;12598;62.382;17.344;2024-01-07T04:13:44;102870.88;;;9.34;12.96
13478;BME280;12598;62.382;17.344;2024-01-07T04:14:47;102866.47;;;9.34;13.47
13478;BME280;12598;62.382;17.344;2024-01-07T04:15:48;102870.88;;;9.34;13.15
13478;BME280;12598;62.382;17.344;2024-01-07T04:16:50;102870.94;;;9.32;13.47
13478;BME280;12598;62.382;17.344;2024-01-07T04:17:52;102868.28;;;9.32;13.13
13478;BME280;12598;62.382;17.344;2024-01-07T04:18:54;102868.28;;;9.32;13.65
13478;BME280;12598;62.382;17.344;2024-01-07T04:19:56;102856.16;;;9.25;13.18
13478;BME280;12598;62.382;17.344;2024-01-07T04:20:58;102870.03;;;9.32;13.17
13478;BME280;12598;62.382;17.344;2024-01-07T04:22:00;102871.84;;;9.31;13.59
13478;BME280;12598;62.382;17.344;2024-01-07T04:23:02;102867.41;;;9.32;13.45
13478;BME280;12598;62.382;17.344;2024-01-07T04:24:04;102867.41;;;9.32;13.66
13478;BME280;12598;62.382;17.344;2024-01-07T04:25:06;102870.94;;;9.32;13.08
13478;BME280;12598;62.382;17.344;2024-01-07T04:26:10;102870.03;;;9.32;13.30
13478;BME280;12598;62.382;17.344;2024-01-07T04:27:11;102870.97;;;9.31;13.17
13478;BME280;12598;62.382;17.344;2024-01-07T04:28:13;102877.97;;;9.32;13.73
13478;BME280;12598;62.382;17.344;2024-01-07T04:29:15;102864.09;;;9.25;13.32
13478;BME280;12598;62.382;17.344;2024-01-07T04:30:17;102871.84;;;9.31;13.78
13478;BME280;12598;62.382;17.344;2024-01-07T04:31:19;102871.84;;;9.31;13.74
13478;BME280;12598;62.382;17.344;2024-01-07T04:32:21;102871.88;;;9.30;13.90
13478;BME280;12598;62.382;17.344;2024-01-07T04:33:23;102876.22;;;9.31;13.35
13478;BME280;12598;62.382;17.344;2024-01-07T04:34:24;102878.06;;;9.29;13.44
13478;BME280;12598;62.382;17.344;2024-01-07T04:35:27;102876.22;;;9.31;13.10
13478;BME280;12598;62.382;17.344;2024-01-07T04:36:29;102866.81;;;9.22;13.44
13478;BME280;12598;62.382;17.344;2024-01-07T04:37:31;102874.50;;;9.30;13.03
13478;BME280;12598;62.382;17.344;2024-01-07T04:38:33;102877.19;;;9.28;13.16
13478;BME280;12598;62.382;17.344;2024-01-07T04:39:34;102872.78;;;9.29;12.99
13478;BME280;12598;62.382;17.344;2024-01-07T04:40:36;102873.69;;;9.28;12.96
13478;BME280;12598;62.382;17.344;2024-01-07T04:41:38;102865.91;;;9.23;13.67
13478;BME280;12598;62.382;17.344;2024-01-07T04:42:44;102879.78;;;9.30;13.25
13478;BME280;12598;62.382;17.344;2024-01-07T04:43:46;102874.50;;;9.30;13.40
13478;BME280;12598;62.382;17.344;2024-01-07T04:44:47;102862.31;;;9.26;12.96
13478;BME280;12598;62.382;17.344;2024-01-07T04:45:49;102871.03;;;9.28;13.17
13478;BME280;12598;62.382;17.344;2024-01-07T04:46:51;102870.13;;;9.29;13.63
13478;BME280;12598;62.382;17.344;2024-01-07T04:47:53;102864.84;;;9.29;13.07
13478;BME280;12598;62.382;17.344;2024-01-07T04:48:55;102855.38;;;9.22;13.32
13478;BME280;12598;62.382;17.344;2024-01-07T04:49:57;102870.13;;;9.29;13.66
13478;BME280;12598;62.382;17.344;2024-01-07T04:50:59;102870.19;;;9.27;13.11
13478;BME280;12598;62.382;17.344;2024-01-07T04:52:01;102866.75;;;9.24;13.12
13478;BME280;12598;62.382;17.344;2024-01-07T04:53:04;102869.31;;;9.27;13.00
13478;BME280;12598;62.382;17.344;2024-01-07T04:54:06;102868.47;;;9.26;13.50
13478;BME280;12598;62.382;17.344;2024-01-07T04:55:08;102859.81;;;9.21;13.21
13478;BME280;12598;62.382;17.344;2024-01-07T04:56:11;102872.84;;;9.26;13.80
13478;BME280;12598;62.382;17.344;2024-01-07T04:57:13;102866.72;;;9.25;13.19
13478;BME280;12598;62.382;17.344;2024-01-07T04:58:15;102872.84;;;9.26;13.30
13478;BME280;12598;62.382;17.344;2024-01-07T04:59:16;102870.28;;;9.24;12.98
13478;BME280;12598;62.382;17.344;2024-01-07T05:00:18;102870.28;;;9.24;13.72
13478;BME280;12598;62.382;17.344;2024-01-07T05:01:20;102868.53;;;9.23;13.05
13478;BME280;12598;62.382;17.344;2024-01-07T05:02:23;102866.84;;;9.21;13.92
13478;BME280;12598;62.382;17.344;2024-01-07T05:03:25;102866.84;;;9.21;13.47
13478;BME280;12598;62.382;17.344;2024-01-07T05:04:27;102872.94;;;9.23;13.47
13478;BME280;12598;62.382;17.344;2024-01-07T05:05:29;102873.81;;;9.23;13.80
13478;BME280;12598;62.382;17.344;2024-01-07T05:06:30;102872.03;;;9.24;13.04
13478;BME280;12598;62.382;17.344;2024-01-07T05:07:33;102879.09;;;9.23;13.16
13478;BME280;12598;62.382;17.344;2024-01-07T05:08:35;102872.09;;;9.22;13.15
13478;BME280;12598;62.382;17.344;2024-01-07T05:09:38;102867.66;;;9.23;13.70
13478;BME280;12598;62.382;17.344;2024-01-07T05:10:40;102859.09;;;9.15;13.25
13478;BME280;12598;62.382;17.344;2024-01-07T05:11:42;102873.81;;;9.23;13.74
13478;BME280;12598;62.382;17.344;2024-01-07T05:12:44;102872.16;;;9.19;13.50
13478;BME280;12598;62.382;17.344;2024-01-07T05:13:46;102873.84;;;9.22;13.67
13478;BME280;12598;62.382;17.344;2024-01-07T05:14:48;102871.22;;;9.22;13.09
13478;BME280;12598;62.382;17.344;2024-01-07T05:15:50;102883.50;;;9.23;13.64
13478;BME280;12598;62.382;17.344;2024-01-07T05:16:55;102880.91;;;9.21;13.48
13478;BME280;12598;62.382;17.344;2024-01-07T05:17:57;102885.28;;;9.22;13.37
13478;BME280;12598;62.382;17.344;2024-01-07T05:18:59;102887.03;;;9.22;13.41
13478;BME280;12598;62.382;17.344;2024-01-07T05:20:01;102887.94;;;9.22;13.11
13478;BME280;12598;62.382;17.344;2024-01-07T05:21:05;102890.59;;;9.21;12.95
13478;BME280;12598;62.382;17.344;2024-01-07T05:22:07;102894.97;;;9.22;13.70
13478;BME280;12598;62.382;17.344;2024-01-07T05:23:09;102891.47;;;9.21;13.70
13478;BME280;12598;62.382;17.344;2024-01-07T05:24:11;102895.88;;;9.21;13.25
13478;BME280;12598;62.382;17.344;2024-01-07T05:25:12;102893.22;;;9.21;13.10